createdAt,value
2023-01-23T00:00:49.422Z,12.48
2023-01-23T00:06:04.222Z,12.20
2023-01-23T00:11:13.432Z,12.25
2023-01-23T00:16:13.949Z,10.45
2023-01-23T00:21:17.187Z,10.95
2023-01-23T00:26:21.133Z,10.52
2023-01-23T00:31:32.035Z,10.88
2023-01-23T00:36:38.313Z,10.25
2023-01-23T00:41:38.897Z,10.43
2023-01-23T00:46:38.800Z,9.88
2023-01-23T00:51:38.562Z,10.65
2023-01-23T00:56:37.799Z,8.73
2023-01-23T01:01:39.466Z,9.65
2023-01-23T01:06:38.548Z,8.48
2023-01-23T01:11:42.012Z,8.68
2023-01-23T01:16:46.954Z,9.32
2023-01-23T01:21:47.871Z,9.98
2023-01-23T01:26:47.976Z,10.07
2023-01-23T01:31:48.610Z,10.63
2023-01-23T01:36:58.674Z,10.10
2023-01-23T01:42:08.916Z,12.00
2023-01-23T01:47:17.111Z,10.15
2023-01-23T01:52:19.429Z,11.88
2023-01-23T01:57:25.385Z,11.85
2023-01-23T02:02:34.013Z,11.50
2023-01-23T02:07:36.877Z,11.88
2023-01-23T02:12:38.827Z,11.93
2023-01-23T02:17:41.317Z,11.15
2023-01-23T02:23:10.945Z,11.18
2023-01-23T02:28:12.771Z,11.45
2023-01-23T02:33:34.997Z,11.38
2023-01-23T02:38:43.300Z,11.85
2023-01-23T02:43:44.321Z,11.30
2023-01-23T02:48:48.558Z,11.77
2023-01-23T02:53:49.886Z,12.05
2023-01-23T02:59:21.652Z,12.02
2023-01-23T03:04:23.764Z,11.50
2023-01-23T03:09:37.189Z,10.38
2023-01-23T03:14:46.748Z,10.70
2023-01-23T03:19:47.574Z,12.50
2023-01-23T03:24:54.076Z,11.75
2023-01-23T03:30:16.242Z,11.77
2023-01-23T03:35:22.775Z,12.68
2023-01-23T03:40:45.777Z,11.98
2023-01-23T03:45:52.086Z,11.23
2023-01-23T03:50:54.053Z,11.13
2023-01-23T03:55:54.247Z,12.60
2023-01-23T04:00:55.476Z,12.55
2023-01-23T04:05:59.447Z,11.43
2023-01-23T04:11:10.397Z,11.13
2023-01-23T04:16:11.730Z,11.85
2023-01-23T04:21:12.569Z,13.15
2023-01-23T04:26:14.493Z,11.90
2023-01-23T04:31:15.593Z,12.23
2023-01-23T04:36:45.217Z,8.35
2023-01-23T04:41:47.603Z,11.25
2023-01-23T04:47:14.643Z,11.27
2023-01-23T04:52:13.933Z,12.27
2023-01-23T04:57:21.519Z,12.50
2023-01-23T05:02:26.248Z,11.98
2023-01-23T05:07:25.135Z,11.75
2023-01-23T05:12:35.787Z,10.65
2023-01-23T05:17:36.443Z,12.15
2023-01-23T05:22:35.860Z,11.70
2023-01-23T05:27:50.288Z,11.98
2023-01-23T05:32:53.454Z,10.23
2023-01-23T05:37:55.676Z,11.02
2023-01-23T05:43:02.028Z,11.13
2023-01-23T05:48:03.242Z,10.35
2023-01-23T05:53:06.248Z,10.32
2023-01-23T06:03:27.002Z,10.60
2023-01-23T06:08:47.466Z,9.90
2023-01-23T06:18:48.003Z,9.13
2023-01-23T06:23:50.681Z,10.43
2023-01-23T06:28:51.208Z,8.18
2023-01-23T06:33:55.962Z,10.63
2023-01-23T06:51:36.041Z,8.32
2023-01-23T06:56:38.317Z,7.68
2023-01-23T07:01:40.819Z,7.70
2023-01-23T07:06:56.752Z,6.75
2023-01-23T07:11:56.381Z,7.47
2023-01-23T07:16:57.132Z,7.53
2023-01-23T07:21:57.588Z,6.45
2023-01-23T07:26:56.187Z,6.75
2023-01-23T07:31:58.338Z,5.93
2023-01-23T07:36:57.096Z,5.95
2023-01-23T07:42:06.214Z,6.32
2023-01-23T07:47:05.234Z,6.55
2023-01-23T07:52:17.864Z,4.38
2023-01-23T07:57:17.822Z,7.63
2023-01-23T08:02:16.211Z,5.22
2023-01-23T08:07:16.717Z,6.72
2023-01-23T08:12:18.442Z,8.00
2023-01-23T08:17:17.377Z,6.85
2023-01-23T08:22:15.731Z,6.90
2023-01-23T08:27:14.016Z,8.13
2023-01-23T08:32:12.727Z,6.15
2023-01-23T08:37:12.758Z,7.18
2023-01-23T08:42:13.502Z,8.07
2023-01-23T08:47:11.343Z,7.72
2023-01-23T08:52:13.119Z,7.55
2023-01-23T08:57:13.019Z,7.15
2023-01-23T09:02:13.179Z,6.75
2023-01-23T09:07:15.460Z,6.82
2023-01-23T09:12:13.101Z,7.15
2023-01-23T09:17:12.016Z,6.22
2023-01-23T09:22:16.843Z,7.22
2023-01-23T09:27:15.279Z,7.05
2023-01-23T09:32:14.487Z,6.97
2023-01-23T09:37:17.685Z,7.57
2023-01-23T09:42:20.536Z,6.88
2023-01-23T09:47:39.263Z,6.63
2023-01-23T09:53:15.660Z,6.82
2023-01-23T09:58:59.684Z,6.90
2023-01-23T10:04:03.720Z,7.25
2023-01-23T10:09:18.670Z,6.25
2023-01-23T10:14:20.180Z,6.13
2023-01-23T10:19:59.559Z,5.05
2023-01-23T10:24:58.558Z,7.30
2023-01-23T10:30:03.727Z,6.78
2023-01-23T10:35:05.825Z,7.65
2023-01-23T10:40:43.150Z,7.82
2023-01-23T10:45:45.237Z,7.28
2023-01-23T10:50:49.399Z,7.10
2023-01-23T10:55:48.379Z,8.73
2023-01-23T11:00:47.061Z,7.75
2023-01-23T11:05:56.493Z,10.38
2023-01-23T11:11:33.122Z,7.20
2023-01-23T11:16:31.761Z,5.40
2023-01-23T11:21:54.588Z,10.80
2023-01-23T11:27:17.213Z,9.35
2023-01-23T11:32:17.510Z,7.78
2023-01-23T11:37:23.130Z,8.52
2023-01-23T11:42:33.446Z,11.15
2023-01-23T11:47:50.573Z,10.45
2023-01-23T11:53:41.555Z,10.15
2023-01-23T11:59:09.863Z,9.33
2023-01-23T12:04:43.663Z,9.15
2023-01-23T12:09:59.714Z,4.40
2023-01-23T12:15:43.223Z,6.00
2023-01-23T12:21:04.583Z,10.17
2023-01-23T12:26:15.469Z,11.52
2023-01-23T12:31:44.163Z,10.07
2023-01-23T12:37:08.717Z,9.45
2023-01-23T12:42:21.883Z,10.20
2023-01-23T12:47:54.521Z,10.57
2023-01-23T12:53:04.297Z,12.00
2023-01-23T12:58:10.085Z,8.90
2023-01-23T13:03:25.888Z,10.05
2023-01-23T13:08:40.506Z,12.57
2023-01-23T13:14:17.091Z,11.27
2023-01-23T13:19:50.822Z,11.38
2023-01-23T13:25:17.503Z,11.27
2023-01-23T13:30:27.554Z,11.00
2023-01-23T13:35:50.399Z,12.70
2023-01-23T13:41:13.452Z,10.05
2023-01-23T14:20:24.494Z,9.85
2023-01-23T14:25:24.028Z,8.60
2023-01-23T14:30:54.306Z,10.48
2023-01-23T14:36:09.148Z,6.68
2023-01-23T14:41:11.011Z,7.88
2023-01-23T14:47:06.271Z,9.57
2023-01-23T14:52:08.087Z,9.88
2023-01-23T14:57:16.825Z,9.07
2023-01-23T15:16:02.065Z,8.48
2023-01-23T15:21:09.269Z,7.70
2023-01-23T15:26:41.006Z,9.52
2023-01-23T15:31:42.836Z,10.13
2023-01-23T15:37:08.274Z,8.80
2023-01-23T15:42:12.354Z,16.10
2023-01-23T15:52:28.703Z,8.88
2023-01-23T15:57:29.724Z,10.43
2023-01-23T16:02:32.982Z,10.98
2023-01-23T16:07:39.979Z,11.73
2023-01-23T16:12:41.540Z,10.63
2023-01-23T16:17:43.326Z,8.27
2023-01-23T16:28:18.220Z,9.73
2023-01-23T16:33:17.422Z,10.18
2023-01-23T16:38:28.813Z,9.23
2023-01-23T16:43:27.547Z,10.50
2023-01-23T16:48:29.340Z,12.00
2023-01-23T16:53:32.860Z,12.80
2023-01-23T16:58:41.813Z,11.45
2023-01-23T17:03:41.480Z,11.95
2023-01-23T17:08:39.871Z,10.10
2023-01-23T17:13:40.388Z,11.10
2023-01-23T17:18:39.673Z,11.75
2023-01-23T17:23:41.758Z,13.10
2023-01-23T17:28:39.133Z,12.13
2023-01-23T17:33:39.037Z,11.98
2023-01-23T17:38:42.300Z,10.38
2023-01-23T17:43:50.461Z,12.95
2023-01-23T17:48:48.462Z,13.80
2023-01-23T17:53:47.726Z,12.63
2023-01-23T17:58:46.806Z,13.32
2023-01-23T18:03:44.277Z,12.23
2023-01-23T18:08:44.977Z,12.45
2023-01-23T18:13:49.198Z,11.38
2023-01-23T18:18:57.639Z,12.48
2023-01-23T18:23:59.834Z,11.90
2023-01-23T18:29:12.360Z,11.98
2023-01-23T18:34:16.679Z,14.20
2023-01-23T18:39:35.589Z,12.55
2023-01-23T18:44:53.988Z,12.27
2023-01-23T18:49:54.305Z,14.50
2023-01-23T18:55:03.515Z,15.00
2023-01-23T19:00:13.197Z,14.80
2023-01-23T19:05:18.644Z,14.07
2023-01-23T19:10:22.235Z,12.88
2023-01-23T19:15:24.924Z,13.00
2023-01-23T19:20:47.563Z,13.85
2023-01-23T19:25:50.368Z,13.13
2023-01-23T19:30:50.346Z,12.60
2023-01-23T19:35:52.944Z,11.18
2023-01-23T19:40:53.684Z,11.75
2023-01-23T19:46:03.145Z,12.13
2023-01-23T19:51:03.945Z,11.75
2023-01-23T19:56:14.058Z,10.20
2023-01-23T20:01:37.605Z,9.95
2023-01-23T20:06:41.528Z,8.25
2023-01-23T20:11:44.978Z,8.27
2023-01-23T20:16:43.936Z,8.45
2023-01-23T20:21:47.533Z,6.80
2023-01-23T20:26:47.109Z,6.68
2023-01-23T20:31:44.656Z,6.50
2023-01-23T20:36:45.840Z,4.90
2023-01-23T20:41:46.485Z,5.93
2023-01-23T20:46:44.586Z,5.85
2023-01-23T20:51:44.828Z,6.38
2023-01-23T20:56:46.143Z,5.47
2023-01-23T21:02:05.218Z,4.68
2023-01-23T21:07:04.337Z,4.13
2023-01-23T21:12:05.743Z,5.68
2023-01-23T21:17:06.862Z,5.72
2023-01-23T21:22:06.237Z,6.20
2023-01-23T21:27:07.557Z,6.28
2023-01-23T21:32:06.201Z,7.60
2023-01-23T21:37:09.546Z,6.30
2023-01-23T21:42:08.791Z,5.75
2023-01-23T21:47:07.562Z,7.65
2023-01-23T21:52:06.607Z,4.63
2023-01-23T21:57:05.812Z,5.32
2023-01-23T22:02:05.654Z,4.53
2023-01-23T22:07:03.623Z,3.15
2023-01-23T22:12:05.417Z,5.13
2023-01-23T22:17:06.462Z,3.78
2023-01-23T22:22:05.408Z,4.15
2023-01-23T22:27:05.410Z,5.25
2023-01-23T22:32:04.685Z,3.85
2023-01-23T22:37:04.877Z,5.43
2023-01-23T22:42:07.214Z,6.05
2023-01-23T22:47:09.080Z,4.68
2023-01-23T22:52:11.100Z,4.50
2023-01-23T22:57:10.476Z,4.22
2023-01-23T23:02:10.525Z,3.90
2023-01-23T23:07:09.991Z,3.88
2023-01-23T23:12:13.664Z,3.95
2023-01-23T23:22:11.373Z,3.88
2023-01-23T23:27:10.146Z,3.65
2023-01-23T23:32:14.696Z,4.38
2023-01-23T23:37:14.873Z,5.85
2023-01-23T23:42:14.731Z,4.22
2023-01-23T23:47:16.005Z,3.25
2023-01-23T23:52:14.172Z,3.25
2023-01-23T23:57:16.760Z,3.67
